Aérodrome :
LOGIN :

S'inscrire | Disclaimer

   EN    FR    IT 

 










Légende :    VFR   VFR Marginal   IFR   IFR Intensif   IFR Très Intensif
Visi : 
Plafond : 
>= 8 km
>= 3000ft
5 à 8 km
1000 à 3000 ft
1500m à 5 km
500 à 1000 ft
800 à 1500m
200 à 500 ft
< 800m
< 200 ft
Symboles :   Orages  Brouillard  Fortes neiges  Fortes précipitations  Vent > 20 kt
SIGMETs :   Divers  Orages  Givrage  Turbulence  Onde Orograph.  Cendres Volcan.







- Altitude de l'aérodrome : 353 ft
- Code IATA : ZAG


LDZA - Zagreb Pleso

DERNIER METAR :
  • 221430Z 04010KT 360V080 2000 -SN BR OVC040 M00/M02 Q1010 NOSIG

METARs EXPIRÉS :
  • 221400Z 04010KT 010V080 3500 -SN BR FEW015 OVC030 00/M02 Q1010 NOSIG
  • 221330Z 05009KT 010V090 6000 -SN BKN017 OVC025 01/M02 Q1010 NOSIG
  • 221300Z 05008KT 010V080 8000 BKN017 OVC025 01/M03 Q1011 NOSIG
  • 221230Z 04010KT 010V070 7000 BKN017 BKN025 01/M03 Q1011 NOSIG
  • 221200Z 05009KT 010V080 7000 OVC017 01/M02 Q1012 NOSIG

TAF AMD TAF LDZA
Valide du 22 à 14h jusqu'au 23 à 12h UTC


221444Z 2214/2312 05006KT 6000 BKN025 TX00/2311Z TNM03/2304Z
TEMPO 2214/2311 2000 -SN BR BKN010 OVC020
PROB40
TEMPO 2220/2304 1200 SN BKN005 OVC020
ATIS : +385 1 6-259-214
Pas de NOTAMs connus pour ce terrain.
1 SIGMET publié pour la FIR Zagreb (LDZO) :
 
Turbulence forte
LDZO SIGMET 5 VALID 221400/221700 LDZA
LDZO ZAGREB FIR SEV TURB FCST WI N4527 E01347 - N4534 E01431 - N4410 E01548 - N4413 E01500 - N4527 E01347 SFC/5000FT STNR NC=



MET'MAP, la Météo Aéronautique d'un coup d'oeil ! - Copyright ORBIFLY Décembre 2007 - Disclaimer

ORBIFLY MET'MAP TEAM :

Programmation & Développement : Alexandra Zaïnal
Conception & Développement : Baudouin d'Aumeries
Co-Programmation & Développement : Marc-Olivier Méhu
Soutien technique & logistique : Manuel Goepfert

Contact : metmap@orbifly.com




SOURCES & CREDITS :

   NOAA